sensor_id;sensor_type;location;lat;lon;timestamp;P1;durP1;ratioP1;P2;durP2;ratioP2
4909;SDS011;2470;49.868;8.660;2023-04-25T00:02:20;2.60;;;2.40;;
4909;SDS011;2470;49.868;8.660;2023-04-25T00:04:45;3.37;;;2.37;;
4909;SDS011;2470;49.868;8.660;2023-04-25T00:07:13;3.77;;;2.50;;
4909;SDS011;2470;49.868;8.660;2023-04-25T00:09:39;4.27;;;2.90;;
4909;SDS011;2470;49.868;8.660;2023-04-25T00:12:04;4.50;;;2.67;;
4909;SDS011;2470;49.868;8.660;2023-04-25T00:14:30;5.63;;;3.30;;
4909;SDS011;2470;49.868;8.660;2023-04-25T00:16:59;7.93;;;2.70;;
4909;SDS011;2470;49.868;8.660;2023-04-25T00:19:25;3.53;;;2.50;;
4909;SDS011;2470;49.868;8.660;2023-04-25T00:21:53;3.23;;;2.47;;
4909;SDS011;2470;49.868;8.660;2023-04-25T00:24:19;4.00;;;3.00;;
4909;SDS011;2470;49.868;8.660;2023-04-25T00:26:45;3.27;;;2.67;;
4909;SDS011;2470;49.868;8.660;2023-04-25T00:29:10;3.20;;;2.70;;
4909;SDS011;2470;49.868;8.660;2023-04-25T00:31:36;3.67;;;3.00;;
4909;SDS011;2470;49.868;8.660;2023-04-25T00:34:01;4.27;;;2.90;;
4909;SDS011;2470;49.868;8.660;2023-04-25T00:36:27;8.53;;;3.33;;
4909;SDS011;2470;49.868;8.660;2023-04-25T00:38:53;6.60;;;3.47;;
4909;SDS011;2470;49.868;8.660;2023-04-25T00:41:19;3.60;;;2.80;;
4909;SDS011;2470;49.868;8.660;2023-04-25T00:43:45;4.77;;;3.00;;
4909;SDS011;2470;49.868;8.660;2023-04-25T00:46:12;3.73;;;2.73;;
4909;SDS011;2470;49.868;8.660;2023-04-25T00:48:38;3.40;;;2.60;;
4909;SDS011;2470;49.868;8.660;2023-04-25T00:51:03;3.77;;;2.93;;
4909;SDS011;2470;49.868;8.660;2023-04-25T00:53:29;7.43;;;3.33;;
4909;SDS011;2470;49.868;8.660;2023-04-25T00:55:57;8.03;;;3.10;;
4909;SDS011;2470;49.868;8.660;2023-04-25T00:58:23;7.93;;;3.33;;
4909;SDS011;2470;49.868;8.660;2023-04-25T01:00:50;6.93;;;4.03;;
4909;SDS011;2470;49.868;8.660;2023-04-25T01:03:17;4.47;;;3.00;;
4909;SDS011;2470;49.868;8.660;2023-04-25T01:05:44;3.83;;;2.70;;
4909;SDS011;2470;49.868;8.660;2023-04-25T01:08:11;4.33;;;3.17;;
4909;SDS011;2470;49.868;8.660;2023-04-25T01:10:37;5.30;;;3.40;;
4909;SDS011;2470;49.868;8.660;2023-04-25T01:13:02;4.13;;;3.47;;
4909;SDS011;2470;49.868;8.660;2023-04-25T01:15:28;5.73;;;3.23;;
4909;SDS011;2470;49.868;8.660;2023-04-25T01:17:54;5.57;;;3.40;;
4909;SDS011;2470;49.868;8.660;2023-04-25T01:20:23;6.17;;;3.77;;
4909;SDS011;2470;49.868;8.660;2023-04-25T01:22:52;7.37;;;3.80;;
4909;SDS011;2470;49.868;8.660;2023-04-25T01:25:18;4.03;;;3.10;;
4909;SDS011;2470;49.868;8.660;2023-04-25T01:27:44;4.93;;;3.40;;
4909;SDS011;2470;49.868;8.660;2023-04-25T01:30:10;8.37;;;4.47;;
4909;SDS011;2470;49.868;8.660;2023-04-25T01:32:36;5.00;;;3.93;;
4909;SDS011;2470;49.868;8.660;2023-04-25T01:35:06;4.47;;;2.67;;
4909;SDS011;2470;49.868;8.660;2023-04-25T01:37:35;6.73;;;3.73;;
4909;SDS011;2470;49.868;8.660;2023-04-25T01:40:05;7.00;;;3.57;;
4909;SDS011;2470;49.868;8.660;2023-04-25T01:42:32;5.27;;;3.30;;
4909;SDS011;2470;49.868;8.660;2023-04-25T01:44:58;4.13;;;3.20;;
4909;SDS011;2470;49.868;8.660;2023-04-25T01:47:24;3.73;;;3.03;;
4909;SDS011;2470;49.868;8.660;2023-04-25T01:49:50;5.70;;;3.43;;
4909;SDS011;2470;49.868;8.660;2023-04-25T01:52:15;3.70;;;2.87;;
4909;SDS011;2470;49.868;8.660;2023-04-25T01:54:41;4.33;;;2.90;;
4909;SDS011;2470;49.868;8.660;2023-04-25T01:57:09;4.60;;;3.50;;
4909;SDS011;2470;49.868;8.660;2023-04-25T01:59:36;3.37;;;3.00;;
4909;SDS011;2470;49.868;8.660;2023-04-25T02:02:02;3.57;;;3.27;;
4909;SDS011;2470;49.868;8.660;2023-04-25T02:04:29;5.80;;;3.67;;
4909;SDS011;2470;49.868;8.660;2023-04-25T02:06:55;4.30;;;2.67;;
4909;SDS011;2470;49.868;8.660;2023-04-25T02:09:20;5.57;;;3.50;;
4909;SDS011;2470;49.868;8.660;2023-04-25T02:11:46;6.50;;;3.87;;
4909;SDS011;2470;49.868;8.660;2023-04-25T02:14:11;5.33;;;3.43;;
4909;SDS011;2470;49.868;8.660;2023-04-25T02:16:37;6.47;;;3.60;;
4909;SDS011;2470;49.868;8.660;2023-04-25T02:19:03;7.07;;;3.93;;
4909;SDS011;2470;49.868;8.660;2023-04-25T02:21:29;3.93;;;3.07;;
4909;SDS011;2470;49.868;8.660;2023-04-25T02:23:55;6.90;;;4.40;;
4909;SDS011;2470;49.868;8.660;2023-04-25T02:26:21;5.53;;;3.57;;
4909;SDS011;2470;49.868;8.660;2023-04-25T02:28:48;6.70;;;3.80;;
4909;SDS011;2470;49.868;8.660;2023-04-25T02:31:14;4.30;;;3.30;;
4909;SDS011;2470;49.868;8.660;2023-04-25T02:33:40;4.20;;;3.43;;
4909;SDS011;2470;49.868;8.660;2023-04-25T02:36:05;5.53;;;3.20;;
4909;SDS011;2470;49.868;8.660;2023-04-25T02:38:31;4.60;;;3.40;;
4909;SDS011;2470;49.868;8.660;2023-04-25T02:40:57;5.63;;;3.57;;
4909;SDS011;2470;49.868;8.660;2023-04-25T02:43:22;6.00;;;3.40;;
4909;SDS011;2470;49.868;8.660;2023-04-25T02:45:48;6.93;;;4.30;;
4909;SDS011;2470;49.868;8.660;2023-04-25T02:48:13;5.90;;;3.60;;
4909;SDS011;2470;49.868;8.660;2023-04-25T02:50:39;7.83;;;4.50;;
4909;SDS011;2470;49.868;8.660;2023-04-25T02:53:04;4.70;;;3.47;;
4909;SDS011;2470;49.868;8.660;2023-04-25T02:55:30;3.97;;;2.73;;
4909;SDS011;2470;49.868;8.660;2023-04-25T02:57:55;6.40;;;5.10;;
4909;SDS011;2470;49.868;8.660;2023-04-25T03:00:21;9.10;;;4.50;;
4909;SDS011;2470;49.868;8.660;2023-04-25T03:02:47;6.03;;;3.40;;
4909;SDS011;2470;49.868;8.660;2023-04-25T03:05:13;3.60;;;2.97;;
4909;SDS011;2470;49.868;8.660;2023-04-25T03:07:38;6.10;;;3.30;;
4909;SDS011;2470;49.868;8.660;2023-04-25T03:10:05;6.03;;;4.23;;
4909;SDS011;2470;49.868;8.660;2023-04-25T03:12:32;6.27;;;3.33;;
4909;SDS011;2470;49.868;8.660;2023-04-25T03:14:57;4.10;;;3.40;;
4909;SDS011;2470;49.868;8.660;2023-04-25T03:17:23;7.77;;;4.90;;
4909;SDS011;2470;49.868;8.660;2023-04-25T03:19:48;5.60;;;3.40;;
4909;SDS011;2470;49.868;8.660;2023-04-25T03:22:14;6.33;;;4.30;;
4909;SDS011;2470;49.868;8.660;2023-04-25T03:24:39;7.23;;;4.30;;
4909;SDS011;2470;49.868;8.660;2023-04-25T03:27:05;6.90;;;4.40;;
4909;SDS011;2470;49.868;8.660;2023-04-25T03:29:30;7.27;;;4.50;;
4909;SDS011;2470;49.868;8.660;2023-04-25T03:31:56;8.87;;;4.30;;
4909;SDS011;2470;49.868;8.660;2023-04-25T03:34:21;6.97;;;4.37;;
4909;SDS011;2470;49.868;8.660;2023-04-25T03:36:47;9.37;;;5.00;;
4909;SDS011;2470;49.868;8.660;2023-04-25T03:39:12;7.17;;;4.37;;
4909;SDS011;2470;49.868;8.660;2023-04-25T03:41:38;7.70;;;4.97;;
4909;SDS011;2470;49.868;8.660;2023-04-25T03:44:03;7.30;;;4.13;;
4909;SDS011;2470;49.868;8.660;2023-04-25T03:46:29;6.00;;;4.43;;
4909;SDS011;2470;49.868;8.660;2023-04-25T03:48:55;5.80;;;4.30;;
4909;SDS011;2470;49.868;8.660;2023-04-25T03:51:20;8.40;;;5.30;;
4909;SDS011;2470;49.868;8.660;2023-04-25T03:53:46;7.90;;;5.03;;
4909;SDS011;2470;49.868;8.660;2023-04-25T03:56:12;7.13;;;5.00;;
4909;SDS011;2470;49.868;8.660;2023-04-25T03:58:37;5.83;;;4.50;;
4909;SDS011;2470;49.868;8.660;2023-04-25T04:01:03;8.47;;;4.90;;
4909;SDS011;2470;49.868;8.660;2023-04-25T04:03:32;6.17;;;4.13;;
4909;SDS011;2470;49.868;8.660;2023-04-25T04:06:01;7.80;;;4.50;;
4909;SDS011;2470;49.868;8.660;2023-04-25T04:08:29;7.40;;;4.60;;
4909;SDS011;2470;49.868;8.660;2023-04-25T04:10:55;7.73;;;5.50;;
4909;SDS011;2470;49.868;8.660;2023-04-25T04:13:20;5.73;;;4.10;;
4909;SDS011;2470;49.868;8.660;2023-04-25T04:15:46;7.50;;;4.20;;
4909;SDS011;2470;49.868;8.660;2023-04-25T04:18:11;7.73;;;5.10;;
4909;SDS011;2470;49.868;8.660;2023-04-25T04:20:37;6.50;;;4.00;;
4909;SDS011;2470;49.868;8.660;2023-04-25T04:23:02;7.30;;;3.73;;
4909;SDS011;2470;49.868;8.660;2023-04-25T04:25:28;7.67;;;4.30;;
4909;SDS011;2470;49.868;8.660;2023-04-25T04:27:54;8.90;;;4.80;;
4909;SDS011;2470;49.868;8.660;2023-04-25T04:30:23;9.37;;;5.00;;
4909;SDS011;2470;49.868;8.660;2023-04-25T04:32:50;7.87;;;5.10;;
4909;SDS011;2470;49.868;8.660;2023-04-25T04:35:16;13.50;;;5.90;;
4909;SDS011;2470;49.868;8.660;2023-04-25T04:37:42;10.60;;;5.67;;
4909;SDS011;2470;49.868;8.660;2023-04-25T04:40:08;7.07;;;4.50;;
4909;SDS011;2470;49.868;8.660;2023-04-25T04:42:34;6.70;;;4.20;;
4909;SDS011;2470;49.868;8.660;2023-04-25T04:45:01;8.10;;;4.47;;
4909;SDS011;2470;49.868;8.660;2023-04-25T04:47:27;5.27;;;4.00;;
4909;SDS011;2470;49.868;8.660;2023-04-25T04:49:55;5.90;;;4.10;;
4909;SDS011;2470;49.868;8.660;2023-04-25T04:52:21;19.97;;;5.07;;
4909;SDS011;2470;49.868;8.660;2023-04-25T04:54:46;8.37;;;5.37;;
4909;SDS011;2470;49.868;8.660;2023-04-25T04:57:12;10.70;;;5.90;;
4909;SDS011;2470;49.868;8.660;2023-04-25T04:59:37;9.93;;;4.97;;
4909;SDS011;2470;49.868;8.660;2023-04-25T05:02:03;10.70;;;5.10;;
4909;SDS011;2470;49.868;8.660;2023-04-25T05:04:28;11.43;;;5.80;;
4909;SDS011;2470;49.868;8.660;2023-04-25T05:06:54;7.60;;;5.00;;
4909;SDS011;2470;49.868;8.660;2023-04-25T05:09:19;8.07;;;4.57;;
4909;SDS011;2470;49.868;8.660;2023-04-25T05:11:45;12.20;;;5.60;;
4909;SDS011;2470;49.868;8.660;2023-04-25T05:14:10;11.83;;;4.50;;
4909;SDS011;2470;49.868;8.660;2023-04-25T05:16:36;11.43;;;5.27;;
4909;SDS011;2470;49.868;8.660;2023-04-25T05:19:01;10.50;;;4.23;;
4909;SDS011;2470;49.868;8.660;2023-04-25T05:21:27;14.07;;;4.30;;
4909;SDS011;2470;49.868;8.660;2023-04-25T05:23:53;7.23;;;3.70;;
4909;SDS011;2470;49.868;8.660;2023-04-25T05:26:19;11.43;;;5.00;;
4909;SDS011;2470;49.868;8.660;2023-04-25T05:28:45;6.40;;;4.40;;
4909;SDS011;2470;49.868;8.660;2023-04-25T05:31:11;6.60;;;4.50;;
4909;SDS011;2470;49.868;8.660;2023-04-25T05:33:37;8.00;;;3.90;;
4909;SDS011;2470;49.868;8.660;2023-04-25T05:36:02;9.37;;;4.20;;
4909;SDS011;2470;49.868;8.660;2023-04-25T05:38:28;8.23;;;3.83;;
4909;SDS011;2470;49.868;8.660;2023-04-25T05:40:54;7.47;;;4.60;;
4909;SDS011;2470;49.868;8.660;2023-04-25T05:43:20;8.20;;;5.20;;
4909;SDS011;2470;49.868;8.660;2023-04-25T05:45:46;8.07;;;3.87;;
4909;SDS011;2470;49.868;8.660;2023-04-25T05:48:11;9.87;;;4.63;;
4909;SDS011;2470;49.868;8.660;2023-04-25T05:50:37;7.60;;;3.90;;
4909;SDS011;2470;49.868;8.660;2023-04-25T05:53:02;7.53;;;4.77;;
4909;SDS011;2470;49.868;8.660;2023-04-25T05:55:28;10.03;;;4.10;;
4909;SDS011;2470;49.868;8.660;2023-04-25T05:57:54;12.40;;;5.37;;
4909;SDS011;2470;49.868;8.660;2023-04-25T06:00:19;9.43;;;4.83;;
4909;SDS011;2470;49.868;8.660;2023-04-25T06:02:47;6.30;;;4.17;;
4909;SDS011;2470;49.868;8.660;2023-04-25T06:05:13;6.50;;;3.30;;
4909;SDS011;2470;49.868;8.660;2023-04-25T06:07:38;10.03;;;4.27;;
4909;SDS011;2470;49.868;8.660;2023-04-25T06:10:04;7.83;;;4.47;;
4909;SDS011;2470;49.868;8.660;2023-04-25T06:12:31;11.50;;;4.50;;
4909;SDS011;2470;49.868;8.660;2023-04-25T06:14:58;4.47;;;3.50;;
4909;SDS011;2470;49.868;8.660;2023-04-25T06:17:24;8.40;;;4.03;;
4909;SDS011;2470;49.868;8.660;2023-04-25T06:19:49;12.37;;;5.40;;
4909;SDS011;2470;49.868;8.660;2023-04-25T06:22:15;8.87;;;4.53;;
4909;SDS011;2470;49.868;8.660;2023-04-25T06:24:40;13.10;;;4.93;;
4909;SDS011;2470;49.868;8.660;2023-04-25T06:27:06;15.57;;;4.80;;
4909;SDS011;2470;49.868;8.660;2023-04-25T06:29:31;6.90;;;4.63;;
4909;SDS011;2470;49.868;8.660;2023-04-25T06:31:57;10.50;;;3.77;;
4909;SDS011;2470;49.868;8.660;2023-04-25T06:34:22;5.70;;;3.50;;
4909;SDS011;2470;49.868;8.660;2023-04-25T06:36:48;8.03;;;4.30;;
4909;SDS011;2470;49.868;8.660;2023-04-25T06:39:13;6.70;;;4.00;;
4909;SDS011;2470;49.868;8.660;2023-04-25T06:41:39;4.47;;;3.13;;
4909;SDS011;2470;49.868;8.660;2023-04-25T06:44:05;14.40;;;4.07;;
4909;SDS011;2470;49.868;8.660;2023-04-25T06:46:30;8.93;;;3.27;;
4909;SDS011;2470;49.868;8.660;2023-04-25T06:48:56;7.63;;;2.90;;
4909;SDS011;2470;49.868;8.660;2023-04-25T06:51:21;3.83;;;2.97;;
4909;SDS011;2470;49.868;8.660;2023-04-25T06:53:49;5.80;;;3.23;;
4909;SDS011;2470;49.868;8.660;2023-04-25T06:56:14;10.60;;;3.60;;
4909;SDS011;2470;49.868;8.660;2023-04-25T06:58:41;7.73;;;3.87;;
4909;SDS011;2470;49.868;8.660;2023-04-25T07:01:06;5.60;;;2.93;;
4909;SDS011;2470;49.868;8.660;2023-04-25T07:03:32;3.57;;;2.80;;
4909;SDS011;2470;49.868;8.660;2023-04-25T07:05:57;6.30;;;3.50;;
4909;SDS011;2470;49.868;8.660;2023-04-25T07:08:22;9.07;;;3.30;;
4909;SDS011;2470;49.868;8.660;2023-04-25T07:10:48;5.10;;;3.37;;
4909;SDS011;2470;49.868;8.660;2023-04-25T07:13:13;18.73;;;8.40;;
4909;SDS011;2470;49.868;8.660;2023-04-25T07:15:39;6.73;;;3.93;;
4909;SDS011;2470;49.868;8.660;2023-04-25T07:18:05;4.40;;;3.17;;
4909;SDS011;2470;49.868;8.660;2023-04-25T07:20:30;10.80;;;3.10;;
4909;SDS011;2470;49.868;8.660;2023-04-25T07:22:56;7.40;;;3.33;;
4909;SDS011;2470;49.868;8.660;2023-04-25T07:25:22;4.90;;;3.50;;
4909;SDS011;2470;49.868;8.660;2023-04-25T07:27:47;9.73;;;3.57;;
4909;SDS011;2470;49.868;8.660;2023-04-25T07:30:13;9.07;;;3.03;;
4909;SDS011;2470;49.868;8.660;2023-04-25T07:32:39;6.13;;;3.33;;
4909;SDS011;2470;49.868;8.660;2023-04-25T07:35:05;4.93;;;3.43;;
4909;SDS011;2470;49.868;8.660;2023-04-25T07:37:32;12.17;;;5.50;;
4909;SDS011;2470;49.868;8.660;2023-04-25T07:40:01;8.97;;;4.80;;
4909;SDS011;2470;49.868;8.660;2023-04-25T07:42:30;4.20;;;3.67;;
4909;SDS011;2470;49.868;8.660;2023-04-25T07:44:55;6.00;;;2.87;;
4909;SDS011;2470;49.868;8.660;2023-04-25T07:47:21;14.57;;;3.50;;
4909;SDS011;2470;49.868;8.660;2023-04-25T07:49:47;12.20;;;3.60;;
4909;SDS011;2470;49.868;8.660;2023-04-25T07:52:12;5.93;;;3.57;;
4909;SDS011;2470;49.868;8.660;2023-04-25T07:54:38;5.20;;;2.77;;
4909;SDS011;2470;49.868;8.660;2023-04-25T07:57:04;4.70;;;2.90;;
4909;SDS011;2470;49.868;8.660;2023-04-25T07:59:31;5.30;;;3.67;;
4909;SDS011;2470;49.868;8.660;2023-04-25T08:01:56;6.03;;;3.60;;
4909;SDS011;2470;49.868;8.660;2023-04-25T08:04:22;10.47;;;3.63;;
4909;SDS011;2470;49.868;8.660;2023-04-25T08:06:48;6.30;;;4.20;;
4909;SDS011;2470;49.868;8.660;2023-04-25T08:09:15;17.93;;;3.47;;
4909;SDS011;2470;49.868;8.660;2023-04-25T08:11:41;10.10;;;2.80;;
4909;SDS011;2470;49.868;8.660;2023-04-25T08:14:06;4.70;;;3.20;;
4909;SDS011;2470;49.868;8.660;2023-04-25T08:16:32;3.40;;;2.43;;
4909;SDS011;2470;49.868;8.660;2023-04-25T08:18:59;10.07;;;2.60;;
4909;SDS011;2470;49.868;8.660;2023-04-25T08:21:25;8.20;;;2.67;;
4909;SDS011;2470;49.868;8.660;2023-04-25T08:23:51;2.83;;;2.50;;
4909;SDS011;2470;49.868;8.660;2023-04-25T08:26:17;3.80;;;1.80;;
4909;SDS011;2470;49.868;8.660;2023-04-25T08:28:42;2.97;;;2.00;;
4909;SDS011;2470;49.868;8.660;2023-04-25T08:31:08;7.10;;;2.67;;
4909;SDS011;2470;49.868;8.660;2023-04-25T08:33:33;5.50;;;2.00;;
4909;SDS011;2470;49.868;8.660;2023-04-25T08:35:59;4.50;;;2.20;;
4909;SDS011;2470;49.868;8.660;2023-04-25T08:38:25;2.23;;;2.00;;
4909;SDS011;2470;49.868;8.660;2023-04-25T08:40:50;4.63;;;2.60;;
4909;SDS011;2470;49.868;8.660;2023-04-25T08:43:17;2.27;;;1.67;;
4909;SDS011;2470;49.868;8.660;2023-04-25T08:45:44;2.17;;;1.97;;
4909;SDS011;2470;49.868;8.660;2023-04-25T08:48:13;3.60;;;2.67;;
4909;SDS011;2470;49.868;8.660;2023-04-25T08:53:12;6.73;;;3.33;;
4909;SDS011;2470;49.868;8.660;2023-04-25T08:55:43;7.70;;;2.20;;
4909;SDS011;2470;49.868;8.660;2023-04-25T08:58:10;5.77;;;1.63;;
4909;SDS011;2470;49.868;8.660;2023-04-25T09:00:36;2.50;;;1.83;;
4909;SDS011;2470;49.868;8.660;2023-04-25T09:03:02;3.10;;;2.30;;
4909;SDS011;2470;49.868;8.660;2023-04-25T09:05:28;5.40;;;2.10;;
4909;SDS011;2470;49.868;8.660;2023-04-25T09:07:54;2.50;;;2.00;;
4909;SDS011;2470;49.868;8.660;2023-04-25T09:10:21;2.53;;;1.63;;
4909;SDS011;2470;49.868;8.660;2023-04-25T09:13:01;2.50;;;1.93;;
4909;SDS011;2470;49.868;8.660;2023-04-25T09:15:47;4.83;;;1.87;;
4909;SDS011;2470;49.868;8.660;2023-04-25T09:18:21;3.60;;;2.00;;
4909;SDS011;2470;49.868;8.660;2023-04-25T09:20:55;3.83;;;2.07;;
4909;SDS011;2470;49.868;8.660;2023-04-25T09:23:22;4.20;;;2.13;;
4909;SDS011;2470;49.868;8.660;2023-04-25T09:25:48;3.03;;;2.00;;
4909;SDS011;2470;49.868;8.660;2023-04-25T09:28:22;2.43;;;1.77;;
4909;SDS011;2470;49.868;8.660;2023-04-25T09:30:56;3.00;;;2.07;;
4909;SDS011;2470;49.868;8.660;2023-04-25T09:33:28;4.27;;;2.20;;
4909;SDS011;2470;49.868;8.660;2023-04-25T09:38:27;7.80;;;2.23;;
4909;SDS011;2470;49.868;8.660;2023-04-25T09:40:55;1.57;;;1.40;;
4909;SDS011;2470;49.868;8.660;2023-04-25T09:43:24;2.30;;;1.80;;
4909;SDS011;2470;49.868;8.660;2023-04-25T09:45:53;2.43;;;2.00;;
4909;SDS011;2470;49.868;8.660;2023-04-25T09:48:22;11.50;;;3.83;;
4909;SDS011;2470;49.868;8.660;2023-04-25T09:53:41;4.93;;;2.23;;
4909;SDS011;2470;49.868;8.660;2023-04-25T09:56:16;5.23;;;2.57;;
4909;SDS011;2470;49.868;8.660;2023-04-25T09:58:44;6.03;;;2.27;;
4909;SDS011;2470;49.868;8.660;2023-04-25T10:01:12;4.77;;;1.93;;
4909;SDS011;2470;49.868;8.660;2023-04-25T10:03:38;2.33;;;1.87;;
4909;SDS011;2470;49.868;8.660;2023-04-25T10:06:07;6.30;;;2.50;;
4909;SDS011;2470;49.868;8.660;2023-04-25T10:08:36;4.57;;;2.03;;
4909;SDS011;2470;49.868;8.660;2023-04-25T10:11:03;2.90;;;2.37;;
4909;SDS011;2470;49.868;8.660;2023-04-25T10:13:30;3.10;;;2.07;;
4909;SDS011;2470;49.868;8.660;2023-04-25T10:16:04;3.33;;;1.83;;
4909;SDS011;2470;49.868;8.660;2023-04-25T10:18:30;2.70;;;2.47;;
4909;SDS011;2470;49.868;8.660;2023-04-25T10:20:57;2.17;;;1.70;;
4909;SDS011;2470;49.868;8.660;2023-04-25T10:23:24;4.60;;;2.73;;
4909;SDS011;2470;49.868;8.660;2023-04-25T10:25:51;7.73;;;2.47;;
4909;SDS011;2470;49.868;8.660;2023-04-25T10:28:18;4.37;;;2.23;;
4909;SDS011;2470;49.868;8.660;2023-04-25T10:31:00;5.33;;;2.97;;
4909;SDS011;2470;49.868;8.660;2023-04-25T10:33:36;5.10;;;2.53;;
4909;SDS011;2470;49.868;8.660;2023-04-25T10:36:19;4.60;;;2.00;;
4909;SDS011;2470;49.868;8.660;2023-04-25T10:38:47;7.73;;;3.10;;
4909;SDS011;2470;49.868;8.660;2023-04-25T10:41:17;3.73;;;2.17;;
4909;SDS011;2470;49.868;8.660;2023-04-25T10:43:44;2.60;;;2.23;;
4909;SDS011;2470;49.868;8.660;2023-04-25T10:46:26;3.77;;;2.30;;
4909;SDS011;2470;49.868;8.660;2023-04-25T10:48:56;3.80;;;2.77;;
4909;SDS011;2470;49.868;8.660;2023-04-25T10:51:23;2.93;;;2.00;;
4909;SDS011;2470;49.868;8.660;2023-04-25T10:56:20;7.67;;;2.63;;
4909;SDS011;2470;49.868;8.660;2023-04-25T10:59:04;5.40;;;2.70;;
4909;SDS011;2470;49.868;8.660;2023-04-25T11:01:35;3.83;;;2.80;;
4909;SDS011;2470;49.868;8.660;2023-04-25T11:04:05;3.00;;;2.20;;
4909;SDS011;2470;49.868;8.660;2023-04-25T11:09:16;4.63;;;3.17;;
4909;SDS011;2470;49.868;8.660;2023-04-25T11:11:42;4.80;;;2.67;;
4909;SDS011;2470;49.868;8.660;2023-04-25T11:14:08;7.13;;;3.13;;
4909;SDS011;2470;49.868;8.660;2023-04-25T11:16:33;3.80;;;2.70;;
4909;SDS011;2470;49.868;8.660;2023-04-25T11:19:01;4.33;;;2.83;;
4909;SDS011;2470;49.868;8.660;2023-04-25T11:21:26;6.87;;;2.90;;
4909;SDS011;2470;49.868;8.660;2023-04-25T11:23:53;4.87;;;2.80;;
4909;SDS011;2470;49.868;8.660;2023-04-25T11:26:19;4.63;;;2.60;;
4909;SDS011;2470;49.868;8.660;2023-04-25T11:28:45;2.30;;;2.10;;
4909;SDS011;2470;49.868;8.660;2023-04-25T11:31:11;2.67;;;2.43;;
4909;SDS011;2470;49.868;8.660;2023-04-25T11:33:37;4.47;;;3.00;;
4909;SDS011;2470;49.868;8.660;2023-04-25T11:36:03;3.83;;;2.43;;
4909;SDS011;2470;49.868;8.660;2023-04-25T11:38:29;8.87;;;4.27;;
4909;SDS011;2470;49.868;8.660;2023-04-25T11:40:54;9.00;;;3.57;;
4909;SDS011;2470;49.868;8.660;2023-04-25T11:43:21;7.73;;;4.03;;
4909;SDS011;2470;49.868;8.660;2023-04-25T11:45:48;3.30;;;2.50;;
4909;SDS011;2470;49.868;8.660;2023-04-25T11:48:14;5.70;;;3.63;;
4909;SDS011;2470;49.868;8.660;2023-04-25T11:50:40;7.07;;;3.10;;
4909;SDS011;2470;49.868;8.660;2023-04-25T11:53:05;4.30;;;2.97;;
4909;SDS011;2470;49.868;8.660;2023-04-25T11:55:31;8.40;;;3.27;;
4909;SDS011;2470;49.868;8.660;2023-04-25T11:57:58;5.00;;;3.47;;
4909;SDS011;2470;49.868;8.660;2023-04-25T12:00:25;6.97;;;4.87;;
4909;SDS011;2470;49.868;8.660;2023-04-25T12:02:55;5.33;;;2.83;;
4909;SDS011;2470;49.868;8.660;2023-04-25T12:05:26;7.33;;;2.97;;
4909;SDS011;2470;49.868;8.660;2023-04-25T12:07:55;4.33;;;2.73;;
4909;SDS011;2470;49.868;8.660;2023-04-25T12:10:21;5.33;;;2.73;;
4909;SDS011;2470;49.868;8.660;2023-04-25T12:12:48;3.73;;;2.73;;
4909;SDS011;2470;49.868;8.660;2023-04-25T12:15:15;4.57;;;2.83;;
4909;SDS011;2470;49.868;8.660;2023-04-25T12:17:45;6.53;;;3.03;;
4909;SDS011;2470;49.868;8.660;2023-04-25T12:20:15;3.03;;;2.60;;
4909;SDS011;2470;49.868;8.660;2023-04-25T12:22:43;2.63;;;2.30;;
4909;SDS011;2470;49.868;8.660;2023-04-25T12:25:10;2.93;;;2.17;;
4909;SDS011;2470;49.868;8.660;2023-04-25T12:27:38;3.10;;;2.60;;
4909;SDS011;2470;49.868;8.660;2023-04-25T12:30:07;3.97;;;2.47;;
4909;SDS011;2470;49.868;8.660;2023-04-25T12:32:33;5.50;;;2.40;;
4909;SDS011;2470;49.868;8.660;2023-04-25T12:34:58;10.33;;;2.80;;
4909;SDS011;2470;49.868;8.660;2023-04-25T12:37:24;7.73;;;2.63;;
4909;SDS011;2470;49.868;8.660;2023-04-25T12:39:49;7.30;;;3.10;;
4909;SDS011;2470;49.868;8.660;2023-04-25T12:42:15;5.53;;;2.90;;
4909;SDS011;2470;49.868;8.660;2023-04-25T12:44:41;3.43;;;2.20;;
4909;SDS011;2470;49.868;8.660;2023-04-25T12:47:06;5.33;;;2.77;;
4909;SDS011;2470;49.868;8.660;2023-04-25T12:49:32;4.87;;;2.50;;
4909;SDS011;2470;49.868;8.660;2023-04-25T12:51:58;6.87;;;2.43;;
4909;SDS011;2470;49.868;8.660;2023-04-25T12:54:23;4.73;;;2.50;;
4909;SDS011;2470;49.868;8.660;2023-04-25T12:56:50;2.47;;;2.27;;
4909;SDS011;2470;49.868;8.660;2023-04-25T12:59:16;4.90;;;2.00;;
4909;SDS011;2470;49.868;8.660;2023-04-25T13:01:41;3.80;;;2.67;;
4909;SDS011;2470;49.868;8.660;2023-04-25T13:04:07;5.37;;;2.43;;
4909;SDS011;2470;49.868;8.660;2023-04-25T13:06:33;2.67;;;2.40;;
4909;SDS011;2470;49.868;8.660;2023-04-25T13:08:58;2.60;;;2.20;;
4909;SDS011;2470;49.868;8.660;2023-04-25T13:11:24;3.87;;;1.97;;
4909;SDS011;2470;49.868;8.660;2023-04-25T13:13:49;2.75;;;1.80;;
4909;SDS011;2470;49.868;8.660;2023-04-25T13:16:15;2.47;;;1.83;;
4909;SDS011;2470;49.868;8.660;2023-04-25T13:18:40;3.17;;;1.95;;
4909;SDS011;2470;49.868;8.660;2023-04-25T13:21:06;4.50;;;1.95;;
4909;SDS011;2470;49.868;8.660;2023-04-25T13:23:33;7.38;;;2.60;;
4909;SDS011;2470;49.868;8.660;2023-04-25T13:25:59;5.25;;;2.22;;
4909;SDS011;2470;49.868;8.660;2023-04-25T13:28:26;3.60;;;2.33;;
4909;SDS011;2470;49.868;8.660;2023-04-25T13:30:52;4.63;;;2.47;;
4909;SDS011;2470;49.868;8.660;2023-04-25T13:33:19;3.33;;;2.13;;
4909;SDS011;2470;49.868;8.660;2023-04-25T13:35:45;4.22;;;2.25;;
4909;SDS011;2470;49.868;8.660;2023-04-25T13:38:18;4.40;;;1.95;;
4909;SDS011;2470;49.868;8.660;2023-04-25T13:40:44;3.25;;;2.22;;
4909;SDS011;2470;49.868;8.660;2023-04-25T13:43:10;3.10;;;2.47;;
4909;SDS011;2470;49.868;8.660;2023-04-25T13:45:36;2.83;;;2.13;;
4909;SDS011;2470;49.868;8.660;2023-04-25T13:48:01;3.37;;;1.80;;
4909;SDS011;2470;49.868;8.660;2023-04-25T13:50:27;3.80;;;1.87;;
4909;SDS011;2470;49.868;8.660;2023-04-25T13:52:53;7.80;;;2.67;;
4909;SDS011;2470;49.868;8.660;2023-04-25T13:55:18;3.00;;;2.00;;
4909;SDS011;2470;49.868;8.660;2023-04-25T13:57:44;6.97;;;2.40;;
4909;SDS011;2470;49.868;8.660;2023-04-25T14:00:10;9.30;;;3.43;;
4909;SDS011;2470;49.868;8.660;2023-04-25T14:02:36;5.03;;;2.77;;
4909;SDS011;2470;49.868;8.660;2023-04-25T14:05:03;3.30;;;2.57;;
4909;SDS011;2470;49.868;8.660;2023-04-25T14:07:29;3.40;;;2.10;;
4909;SDS011;2470;49.868;8.660;2023-04-25T14:09:55;4.60;;;2.30;;
4909;SDS011;2470;49.868;8.660;2023-04-25T14:12:22;2.90;;;1.90;;
4909;SDS011;2470;49.868;8.660;2023-04-25T14:14:48;2.40;;;1.63;;
4909;SDS011;2470;49.868;8.660;2023-04-25T14:17:13;5.03;;;1.80;;
4909;SDS011;2470;49.868;8.660;2023-04-25T14:19:39;9.53;;;2.47;;
4909;SDS011;2470;49.868;8.660;2023-04-25T14:22:08;3.00;;;2.00;;
4909;SDS011;2470;49.868;8.660;2023-04-25T14:24:34;7.93;;;1.75;;
4909;SDS011;2470;49.868;8.660;2023-04-25T14:26:59;4.43;;;2.53;;
4909;SDS011;2470;49.868;8.660;2023-04-25T14:29:25;2.15;;;1.95;;
4909;SDS011;2470;49.868;8.660;2023-04-25T14:31:51;4.55;;;2.42;;
4909;SDS011;2470;49.868;8.660;2023-04-25T14:34:18;2.50;;;2.03;;
4909;SDS011;2470;49.868;8.660;2023-04-25T14:36:43;2.85;;;1.67;;
4909;SDS011;2470;49.868;8.660;2023-04-25T14:39:09;2.22;;;1.80;;
4909;SDS011;2470;49.868;8.660;2023-04-25T14:41:35;2.40;;;2.13;;
4909;SDS011;2470;49.868;8.660;2023-04-25T14:44:00;6.35;;;2.38;;
4909;SDS011;2470;49.868;8.660;2023-04-25T14:46:26;3.90;;;2.00;;
4909;SDS011;2470;49.868;8.660;2023-04-25T14:48:51;3.77;;;2.50;;
4909;SDS011;2470;49.868;8.660;2023-04-25T14:51:17;2.07;;;1.80;;
4909;SDS011;2470;49.868;8.660;2023-04-25T14:53:43;4.40;;;2.20;;
4909;SDS011;2470;49.868;8.660;2023-04-25T14:56:09;9.93;;;2.60;;
4909;SDS011;2470;49.868;8.660;2023-04-25T14:58:34;2.50;;;1.77;;
4909;SDS011;2470;49.868;8.660;2023-04-25T15:01:00;3.07;;;2.57;;
4909;SDS011;2470;49.868;8.660;2023-04-25T15:03:25;2.37;;;1.97;;
4909;SDS011;2470;49.868;8.660;2023-04-25T15:05:52;10.03;;;2.67;;
4909;SDS011;2470;49.868;8.660;2023-04-25T15:08:18;2.70;;;1.67;;
4909;SDS011;2470;49.868;8.660;2023-04-25T15:10:44;1.80;;;1.70;;
4909;SDS011;2470;49.868;8.660;2023-04-25T15:13:11;10.93;;;2.60;;
4909;SDS011;2470;49.868;8.660;2023-04-25T15:15:40;4.73;;;2.40;;
4909;SDS011;2470;49.868;8.660;2023-04-25T15:18:05;8.00;;;2.80;;
4909;SDS011;2470;49.868;8.660;2023-04-25T15:20:31;3.83;;;1.97;;
4909;SDS011;2470;49.868;8.660;2023-04-25T15:22:57;1.73;;;1.63;;
4909;SDS011;2470;49.868;8.660;2023-04-25T15:25:22;2.00;;;1.80;;